메인 페이지
METAR-TAF:

METAR-TAF

공항 :

캔자스시티, 미주리, 미국

위도: 39-17-50N, 경도: 094-43-50W, 고도: 312m

현재 날씨관측

예보는 1 시간 6분 전, 03:53시(UTC)에 발표되었습니다.
서남서6kt
온도 2°C
습도 75%
기압 1027 hPa
시정: 16.1km
맑음

METAR: KMCI 160353Z 24006KT 10SM CLR 02/M02 A3034 RMK AO2 SLP281 T00171017

시각: 23:59 (04:59 UTC)

예보

예보는 5 시간 39분 전, 23:20시(UTC)에 발표되었습니다.
예보 대상 시간: 16일 00시부터 16일 24시까지 (UTC)
여러 방향의 바람 4kt
시정: 10km
맑음
16일 1500시부터 (UTC)
남서8kt
시정: 10km
맑음

TAF: KMCI 152320Z 1600/1624 VRB04KT P6SM SKC FM161500 23008KT P6SM SKC

4,000개 이상의 공항 관측 자료 및 예보 (METAR 및 TAF 보고).

지도상에서 검색 가능한 기상관측소가 노란 점과 빨간 점으로 표시되어 있습니다.

기상관측소 명을 보려면 표시 위로 마우스를 이동하세요.

날씨 관측과 예보를 보려면 클릭하세요.

지도 변경 : 확대하려면 엑스 표시가 있는 녹색 버튼, 축소하려면 빼기 표시가 있는 녹색 버튼, 다음 페이지의 지도를 보려면 녹색 화살표를 클릭하세요.


METAR-TAF: